createdAt,value
2018-08-28T00:01:33.787Z,10.27
2018-08-28T00:04:01.974Z,8.57
2018-08-28T00:06:30.144Z,9.60
2018-08-28T00:08:58.337Z,8.47
2018-08-28T00:11:26.523Z,8.97
2018-08-28T00:13:54.696Z,7.10
2018-08-28T00:16:22.857Z,6.80
2018-08-28T00:18:51.021Z,9.70
2018-08-28T00:21:19.211Z,8.47
2018-08-28T00:23:47.376Z,9.87
2018-08-28T00:26:15.559Z,8.33
2018-08-28T00:28:43.721Z,9.33
2018-08-28T00:31:11.910Z,7.70
2018-08-28T00:33:40.204Z,9.53
2018-08-28T00:36:08.379Z,10.47
2018-08-28T00:38:36.536Z,9.60
2018-08-28T00:41:04.709Z,7.80
2018-08-28T00:43:32.881Z,9.53
2018-08-28T00:46:01.063Z,7.63
2018-08-28T00:48:29.232Z,11.03
2018-08-28T00:50:57.411Z,10.50
2018-08-28T00:53:25.592Z,8.97
2018-08-28T00:55:53.764Z,8.83
2018-08-28T00:58:21.941Z,10.40
2018-08-28T01:00:50.174Z,11.50
2018-08-28T01:03:18.369Z,8.17
2018-08-28T01:05:46.605Z,8.57
2018-08-28T01:08:14.792Z,10.97
2018-08-28T01:10:42.976Z,11.10
2018-08-28T01:13:11.170Z,12.77
2018-08-28T01:15:39.340Z,10.07
2018-08-28T01:18:07.550Z,8.10
2018-08-28T01:20:35.729Z,12.10
2018-08-28T01:23:03.917Z,11.00
2018-08-28T01:25:32.087Z,8.27
2018-08-28T01:28:00.260Z,9.83
2018-08-28T01:30:32.459Z,7.93
2018-08-28T01:33:01.000Z,8.30
2018-08-28T01:35:29.270Z,10.47
2018-08-28T01:37:57.597Z,8.67
2018-08-28T01:40:25.760Z,8.50
2018-08-28T01:42:53.936Z,7.80
2018-08-28T01:45:22.097Z,6.33
2018-08-28T01:47:50.277Z,8.53
2018-08-28T01:50:18.434Z,9.13
2018-08-28T01:52:46.608Z,10.23
2018-08-28T01:55:14.797Z,12.80
2018-08-28T01:57:42.961Z,10.00
2018-08-28T02:00:11.147Z,9.33
2018-08-28T02:02:39.354Z,9.03
2018-08-28T02:05:07.856Z,10.07
2018-08-28T02:07:36.144Z,10.03
2018-08-28T02:10:04.340Z,9.50
2018-08-28T02:12:32.517Z,12.27
2018-08-28T02:15:00.703Z,8.50
2018-08-28T02:17:28.880Z,6.33
2018-08-28T02:19:57.045Z,8.07
2018-08-28T02:22:25.284Z,15.93
2018-08-28T02:24:53.482Z,10.50
2018-08-28T02:27:21.646Z,9.63
2018-08-28T02:29:49.816Z,8.67
2018-08-28T02:32:17.980Z,8.43
2018-08-28T02:34:46.165Z,8.60
2018-08-28T02:37:14.336Z,10.77
2018-08-28T02:39:42.536Z,12.67
2018-08-28T02:42:10.700Z,9.30
2018-08-28T02:44:38.864Z,11.97
2018-08-28T02:47:07.046Z,9.67
2018-08-28T02:49:35.204Z,8.80
2018-08-28T02:52:03.368Z,7.40
2018-08-28T02:54:31.536Z,11.53
2018-08-28T02:56:59.716Z,12.40
2018-08-28T02:59:27.884Z,9.47
2018-08-28T03:01:56.040Z,14.80
2018-08-28T03:04:24.197Z,14.50
2018-08-28T03:06:52.365Z,9.70
2018-08-28T03:09:20.532Z,11.60
2018-08-28T03:11:48.732Z,11.43
2018-08-28T03:14:16.888Z,11.83
2018-08-28T03:16:45.046Z,11.53
2018-08-28T03:19:13.205Z,12.07
2018-08-28T03:21:41.380Z,9.57
2018-08-28T03:24:09.550Z,12.43
2018-08-28T03:26:37.750Z,11.47
2018-08-28T03:29:06.005Z,10.60
2018-08-28T03:31:34.119Z,12.50
2018-08-28T03:34:02.630Z,12.33
2018-08-28T03:36:30.796Z,8.87
2018-08-28T03:38:59.089Z,12.33
2018-08-28T03:41:27.280Z,12.87
2018-08-28T03:43:55.741Z,9.93
2018-08-28T03:46:23.912Z,13.73
2018-08-28T03:48:52.096Z,11.67
2018-08-28T03:51:20.265Z,10.27
2018-08-28T03:53:48.425Z,11.40
2018-08-28T03:56:16.588Z,11.93
2018-08-28T03:58:44.757Z,11.67
2018-08-28T04:01:12.960Z,11.07
2018-08-28T04:03:41.186Z,13.77
2018-08-28T04:06:09.366Z,10.90
2018-08-28T04:08:37.520Z,11.40
2018-08-28T04:11:05.718Z,16.27
2018-08-28T04:13:33.966Z,12.13
2018-08-28T04:16:02.228Z,13.10
2018-08-28T04:18:30.408Z,11.70
2018-08-28T04:20:58.588Z,9.33
2018-08-28T04:23:26.772Z,11.90
2018-08-28T04:25:54.941Z,12.90
2018-08-28T04:28:24.894Z,12.17
2018-08-28T04:30:53.760Z,13.03
2018-08-28T04:33:21.986Z,13.33
2018-08-28T04:35:50.211Z,17.03
2018-08-28T04:38:18.457Z,11.17
2018-08-28T04:40:46.677Z,12.93
2018-08-28T04:43:14.918Z,13.63
2018-08-28T04:45:43.185Z,9.77
2018-08-28T04:48:11.473Z,12.00
2018-08-28T04:50:39.737Z,16.77
2018-08-28T04:53:08.043Z,14.53
2018-08-28T04:55:36.305Z,17.27
2018-08-28T04:58:04.558Z,15.93
2018-08-28T05:00:32.847Z,11.80
2018-08-28T05:03:01.130Z,12.67
2018-08-28T05:05:29.393Z,14.30
2018-08-28T05:07:57.656Z,17.70
2018-08-28T05:10:25.900Z,14.13
2018-08-28T05:12:54.130Z,12.07
2018-08-28T05:15:22.407Z,13.20
2018-08-28T05:17:50.628Z,13.17
2018-08-28T05:20:18.901Z,15.43
2018-08-28T05:22:47.800Z,12.93
2018-08-28T05:25:16.073Z,15.50
2018-08-28T05:27:44.339Z,18.10
2018-08-28T05:30:12.558Z,17.50
2018-08-28T05:32:40.839Z,15.80
2018-08-28T05:35:09.107Z,15.23
2018-08-28T05:37:37.341Z,10.90
2018-08-28T05:40:05.845Z,15.17
2018-08-28T05:42:34.135Z,15.87
2018-08-28T05:45:02.428Z,14.47
2018-08-28T05:47:30.646Z,15.90
2018-08-28T05:50:02.688Z,11.50
2018-08-28T05:52:30.998Z,13.93
2018-08-28T05:54:59.288Z,14.70
2018-08-28T05:57:27.574Z,12.77
2018-08-28T05:59:55.922Z,16.30
2018-08-28T06:02:24.173Z,12.77
2018-08-28T06:04:52.432Z,13.93
2018-08-28T06:07:20.697Z,13.47
2018-08-28T06:09:49.044Z,18.43
2018-08-28T06:12:17.379Z,14.43
2018-08-28T06:14:45.734Z,12.80
2018-08-28T06:17:13.933Z,17.20
2018-08-28T06:19:42.243Z,13.63
2018-08-28T06:22:11.074Z,14.87
2018-08-28T06:24:39.567Z,13.97
2018-08-28T06:27:07.851Z,17.27
2018-08-28T06:29:36.141Z,14.73
2018-08-28T06:32:04.842Z,19.43
2018-08-28T06:34:33.080Z,12.53
2018-08-28T06:37:01.955Z,17.97
2018-08-28T06:39:30.252Z,17.93
2018-08-28T06:41:58.582Z,18.33
2018-08-28T06:44:26.889Z,16.57
2018-08-28T06:46:55.298Z,13.73
2018-08-28T06:49:23.688Z,11.97
2018-08-28T06:51:51.941Z,14.47
2018-08-28T06:54:20.167Z,18.63
2018-08-28T06:56:48.923Z,12.47
2018-08-28T06:59:17.153Z,11.80
2018-08-28T07:01:45.369Z,13.37
2018-08-28T07:04:13.627Z,17.03
2018-08-28T07:06:42.246Z,15.37
2018-08-28T07:09:10.522Z,14.07
2018-08-28T07:11:39.283Z,17.40
2018-08-28T07:14:07.497Z,12.90
2018-08-28T07:16:35.746Z,16.87
2018-08-28T07:19:04.029Z,15.27
2018-08-28T07:21:32.370Z,16.93
2018-08-28T07:24:00.912Z,13.50
2018-08-28T07:26:29.273Z,14.73
2018-08-28T07:28:57.591Z,13.93
2018-08-28T07:31:27.743Z,14.07
2018-08-28T07:33:57.331Z,14.23
2018-08-28T07:36:25.558Z,15.27
2018-08-28T07:38:53.899Z,13.43
2018-08-28T07:41:22.294Z,13.13
2018-08-28T07:43:52.615Z,12.60
2018-08-28T07:46:21.699Z,15.17
2018-08-28T07:48:52.682Z,13.03
2018-08-28T07:51:22.057Z,15.33
2018-08-28T07:53:50.484Z,16.30
2018-08-28T07:56:20.531Z,15.23
2018-08-28T07:58:48.876Z,12.37
2018-08-28T08:01:17.227Z,13.60
2018-08-28T08:03:47.505Z,19.30
2018-08-28T08:06:15.753Z,12.67
2018-08-28T08:08:43.981Z,19.30
2018-08-28T08:11:12.282Z,14.87
2018-08-28T08:13:40.569Z,15.63
2018-08-28T08:16:10.021Z,9.90
2018-08-28T08:18:40.407Z,13.83
2018-08-28T08:21:08.671Z,12.00
2018-08-28T08:23:37.041Z,11.47
2018-08-28T08:26:05.302Z,8.23
2018-08-28T08:28:33.513Z,11.17
2018-08-28T08:31:01.760Z,9.37
2018-08-28T08:33:30.206Z,9.37
2018-08-28T08:35:58.481Z,10.57
2018-08-28T08:38:26.701Z,8.13
2018-08-28T08:40:55.060Z,12.33
2018-08-28T08:43:23.404Z,10.20
2018-08-28T08:45:51.965Z,10.70
2018-08-28T08:48:20.325Z,8.60
2018-08-28T08:50:48.673Z,11.47
2018-08-28T08:53:17.101Z,9.53
2018-08-28T08:55:46.462Z,6.73
2018-08-28T08:58:14.837Z,8.00
2018-08-28T09:00:43.542Z,8.03
2018-08-28T09:03:11.819Z,7.27
2018-08-28T09:05:40.189Z,10.03
2018-08-28T09:08:08.572Z,9.20
2018-08-28T09:10:37.196Z,7.17
2018-08-28T09:13:05.497Z,9.10
2018-08-28T09:15:36.740Z,8.17
2018-08-28T09:18:05.338Z,6.97
2018-08-28T09:20:33.559Z,8.93
2018-08-28T09:23:01.811Z,10.10
2018-08-28T09:25:30.092Z,5.47
2018-08-28T09:27:58.457Z,7.47
2018-08-28T09:30:26.740Z,8.60
2018-08-28T09:32:55.013Z,10.23
2018-08-28T09:35:23.353Z,7.27
2018-08-28T09:37:51.643Z,6.47
2018-08-28T09:40:19.908Z,7.97
2018-08-28T09:42:48.334Z,5.17
2018-08-28T09:45:16.705Z,11.00
2018-08-28T09:47:44.989Z,7.33
2018-08-28T09:50:14.228Z,5.57
2018-08-28T09:52:42.492Z,4.20
2018-08-28T09:55:11.655Z,7.63
2018-08-28T09:57:40.576Z,6.20
2018-08-28T10:00:13.713Z,5.47
2018-08-28T10:02:43.172Z,9.13
2018-08-28T10:05:11.432Z,6.40
2018-08-28T10:07:40.097Z,7.20
2018-08-28T10:10:08.473Z,10.80
2018-08-28T10:12:40.222Z,7.40
2018-08-28T10:15:08.551Z,5.83
2018-08-28T10:17:36.864Z,6.17
2018-08-28T10:20:05.313Z,4.93
2018-08-28T10:22:33.562Z,6.83
2018-08-28T10:25:01.909Z,9.77
2018-08-28T10:27:30.177Z,6.23
2018-08-28T10:29:58.508Z,8.60
2018-08-28T10:32:26.722Z,9.70
2018-08-28T10:34:55.061Z,7.70
2018-08-28T10:37:23.490Z,5.43
2018-08-28T10:39:52.192Z,7.13
2018-08-28T10:42:20.567Z,6.30
2018-08-28T10:44:48.921Z,7.70
2018-08-28T10:47:17.187Z,5.50
2018-08-28T10:49:45.524Z,7.83
2018-08-28T10:52:13.745Z,7.43
2018-08-28T10:54:41.991Z,6.17
2018-08-28T10:57:10.284Z,7.13
2018-08-28T10:59:38.556Z,4.27
2018-08-28T11:02:07.585Z,8.73
2018-08-28T11:04:36.889Z,5.50
2018-08-28T11:07:07.235Z,6.60
2018-08-28T11:09:35.640Z,6.10
2018-08-28T11:12:03.960Z,6.87
2018-08-28T11:14:32.200Z,4.83
2018-08-28T11:17:00.435Z,8.90
2018-08-28T11:19:29.399Z,5.10
2018-08-28T11:21:57.790Z,6.87
2018-08-28T11:24:26.031Z,4.80
2018-08-28T11:26:54.296Z,5.53
2018-08-28T11:29:23.583Z,4.73
2018-08-28T11:31:51.970Z,4.97
2018-08-28T11:34:21.277Z,6.00
2018-08-28T11:36:49.762Z,7.37
2018-08-28T11:39:18.321Z,5.20
2018-08-28T11:41:46.921Z,5.30
2018-08-28T11:44:15.147Z,7.23
2018-08-28T11:46:43.683Z,7.50
2018-08-28T11:49:12.177Z,7.83
2018-08-28T11:51:40.702Z,7.07
2018-08-28T11:54:09.081Z,6.30
2018-08-28T11:56:37.727Z,5.63
2018-08-28T11:59:07.662Z,7.27
2018-08-28T12:01:36.522Z,7.10
2018-08-28T12:04:06.700Z,6.87
2018-08-28T12:06:35.680Z,7.33
2018-08-28T12:09:05.313Z,5.72
2018-08-28T12:11:34.273Z,4.33
2018-08-28T12:14:03.747Z,5.57
2018-08-28T12:16:33.092Z,6.73
2018-08-28T12:19:02.078Z,5.97
2018-08-28T12:21:31.406Z,5.20
2018-08-28T12:24:00.191Z,7.37
2018-08-28T12:26:28.565Z,5.53
2018-08-28T12:28:57.225Z,8.43
2018-08-28T12:31:30.872Z,5.57
2018-08-28T12:34:00.397Z,8.83
2018-08-28T12:36:28.901Z,7.50
2018-08-28T12:38:58.225Z,7.40
2018-08-28T12:41:28.192Z,6.07
2018-08-28T12:43:56.967Z,7.17
2018-08-28T12:46:25.697Z,6.57
2018-08-28T12:48:54.319Z,6.13
2018-08-28T12:51:23.174Z,5.43
2018-08-28T12:53:51.842Z,6.20
2018-08-28T12:56:22.682Z,4.60
2018-08-28T12:58:51.794Z,4.33
2018-08-28T13:01:20.706Z,7.43
2018-08-28T13:03:49.637Z,7.70
2018-08-28T13:06:20.609Z,5.47
2018-08-28T13:08:50.432Z,5.47
2018-08-28T13:11:19.053Z,5.27
2018-08-28T13:13:48.076Z,6.00
2018-08-28T13:16:17.154Z,6.45
2018-08-28T13:18:46.445Z,7.23
2018-08-28T13:21:22.522Z,5.40
2018-08-28T13:23:51.146Z,5.27
2018-08-28T13:26:20.608Z,6.77
2018-08-28T13:28:49.364Z,5.23
2018-08-28T13:31:18.665Z,5.80
2018-08-28T13:33:47.323Z,6.17
2018-08-28T13:36:15.768Z,5.73
2018-08-28T13:38:44.572Z,7.13
2018-08-28T13:41:13.435Z,5.40
2018-08-28T13:43:42.190Z,6.33
2018-08-28T13:46:11.016Z,6.57
2018-08-28T13:48:39.657Z,6.77
2018-08-28T13:51:08.465Z,6.73
2018-08-28T13:53:40.378Z,5.15
2018-08-28T13:56:09.140Z,7.37
2018-08-28T13:58:37.969Z,7.78
2018-08-28T14:01:06.757Z,4.77
2018-08-28T14:03:35.050Z,6.13
2018-08-28T14:06:03.574Z,5.70
2018-08-28T14:08:31.968Z,7.37
2018-08-28T14:11:00.682Z,6.67
2018-08-28T14:13:29.121Z,5.10
2018-08-28T14:15:57.653Z,8.63
2018-08-28T14:18:26.110Z,6.83
2018-08-28T14:20:54.520Z,5.00
2018-08-28T14:23:22.884Z,8.53
2018-08-28T14:25:51.609Z,5.80
2018-08-28T14:28:19.954Z,6.63
2018-08-28T14:30:48.345Z,9.47
2018-08-28T14:33:16.742Z,7.53
2018-08-28T14:35:45.025Z,5.13
2018-08-28T14:38:13.284Z,4.77
2018-08-28T14:40:41.917Z,4.20
2018-08-28T14:43:10.157Z,6.97
2018-08-28T14:45:38.401Z,6.90
2018-08-28T14:48:06.694Z,4.87
2018-08-28T14:50:35.082Z,5.73
2018-08-28T14:53:03.241Z,5.73
2018-08-28T14:55:31.498Z,7.37
2018-08-28T14:57:59.799Z,5.20
2018-08-28T15:00:28.127Z,5.07
2018-08-28T15:02:56.388Z,7.90
2018-08-28T15:05:24.768Z,7.13
2018-08-28T15:07:53.866Z,7.90
2018-08-28T15:10:22.386Z,8.20
2018-08-28T15:12:50.627Z,5.47
2018-08-28T15:15:18.966Z,6.30
2018-08-28T15:17:48.072Z,7.37
2018-08-28T15:20:17.270Z,5.93
2018-08-28T15:22:46.248Z,4.97
2018-08-28T15:25:15.000Z,6.60
2018-08-28T15:27:43.712Z,6.97
2018-08-28T15:30:12.604Z,8.00
2018-08-28T15:32:41.536Z,6.90
2018-08-28T15:35:10.173Z,6.27
2018-08-28T15:37:38.891Z,6.33
2018-08-28T15:40:08.705Z,7.83
2018-08-28T15:42:38.824Z,8.67
2018-08-28T15:45:10.320Z,7.33
2018-08-28T15:47:39.611Z,6.90
2018-08-28T15:50:09.767Z,4.73
2018-08-28T15:52:42.108Z,5.83
2018-08-28T15:55:12.659Z,6.33
2018-08-28T15:57:42.533Z,5.03
2018-08-28T16:00:15.889Z,5.37
2018-08-28T16:02:50.786Z,8.43
2018-08-28T16:05:20.884Z,6.70
2018-08-28T16:07:51.967Z,6.03
2018-08-28T16:10:21.906Z,4.57
2018-08-28T16:12:50.967Z,5.47
2018-08-28T16:15:19.342Z,5.27
2018-08-28T16:17:47.965Z,7.27
2018-08-28T16:20:16.403Z,5.13
2018-08-28T16:23:03.918Z,5.23
2018-08-28T16:25:32.795Z,5.27
2018-08-28T16:28:02.030Z,5.97
2018-08-28T16:30:30.707Z,5.20
2018-08-28T16:33:00.049Z,5.60
2018-08-28T16:35:28.959Z,7.63
2018-08-28T16:37:57.609Z,5.43
2018-08-28T16:40:27.031Z,7.40
2018-08-28T16:42:57.405Z,4.77
2018-08-28T16:45:25.949Z,4.87
2018-08-28T16:47:55.046Z,6.50
2018-08-28T16:50:23.855Z,5.93
2018-08-28T16:52:52.779Z,5.37
2018-08-28T16:55:22.346Z,5.53
2018-08-28T16:57:51.037Z,5.60
2018-08-28T17:00:20.769Z,4.20
2018-08-28T17:02:50.359Z,7.73
2018-08-28T17:05:19.240Z,6.17
2018-08-28T17:07:49.451Z,7.67
2018-08-28T17:10:18.240Z,5.37
2018-08-28T17:12:47.917Z,5.60
2018-08-28T17:15:16.554Z,6.63
2018-08-28T17:17:45.397Z,6.70
2018-08-28T17:20:14.573Z,6.20
2018-08-28T17:22:43.349Z,7.90
2018-08-28T17:25:12.678Z,5.43
2018-08-28T17:27:41.337Z,4.43
2018-08-28T17:30:10.127Z,5.63
2018-08-28T17:32:38.791Z,5.67
2018-08-28T17:35:07.768Z,4.20
2018-08-28T17:37:36.631Z,4.60
2018-08-28T17:40:06.203Z,5.57
2018-08-28T17:42:35.008Z,6.23
2018-08-28T17:45:04.036Z,7.53
2018-08-28T17:47:33.239Z,5.63
2018-08-28T17:50:01.957Z,7.43
2018-08-28T17:52:30.461Z,9.00
2018-08-28T17:54:59.732Z,3.93
2018-08-28T17:57:28.657Z,7.43
2018-08-28T17:59:58.457Z,5.00
2018-08-28T18:02:26.967Z,6.03
2018-08-28T18:04:55.379Z,5.43
2018-08-28T18:07:24.281Z,6.73
2018-08-28T18:09:52.842Z,5.67
2018-08-28T18:12:21.536Z,5.23
2018-08-28T18:14:50.669Z,6.00
2018-08-28T18:17:19.000Z,8.23
2018-08-28T18:19:48.257Z,6.43
2018-08-28T18:22:17.250Z,5.67
2018-08-28T18:24:45.584Z,6.73
2018-08-28T18:27:13.931Z,6.43
2018-08-28T18:29:42.286Z,5.60
2018-08-28T18:32:13.399Z,6.33
2018-08-28T18:34:41.788Z,6.77
2018-08-28T18:37:10.145Z,8.13
2018-08-28T18:39:38.513Z,6.20
2018-08-28T18:42:07.130Z,8.10
2018-08-28T18:44:37.606Z,6.43
2018-08-28T18:47:06.204Z,9.03
2018-08-28T18:49:35.598Z,4.53
2018-08-28T18:52:03.975Z,5.73
2018-08-28T18:54:32.924Z,7.50
2018-08-28T18:57:01.159Z,10.03
2018-08-28T18:59:29.675Z,6.53
2018-08-28T19:01:58.620Z,9.10
2018-08-28T19:04:26.900Z,7.47
2018-08-28T19:06:55.133Z,8.37
2018-08-28T19:09:23.380Z,8.87
2018-08-28T19:11:51.842Z,8.33
2018-08-28T19:14:20.448Z,11.17
2018-08-28T19:16:48.681Z,7.60
2018-08-28T19:19:17.293Z,8.67
2018-08-28T19:21:45.490Z,9.23
2018-08-28T19:24:13.745Z,7.93
2018-08-28T19:26:42.664Z,11.77
2018-08-28T19:29:10.973Z,8.97
2018-08-28T19:31:39.351Z,7.47
2018-08-28T19:34:08.513Z,14.40
2018-08-28T19:36:36.802Z,8.03
2018-08-28T19:39:05.610Z,8.13
2018-08-28T19:41:34.681Z,8.30
2018-08-28T19:44:03.091Z,12.77
2018-08-28T19:46:31.990Z,14.13
2018-08-28T19:49:02.946Z,9.20
2018-08-28T19:51:31.225Z,7.60
2018-08-28T19:54:01.616Z,8.53
2018-08-28T19:56:30.157Z,7.63
2018-08-28T19:58:58.677Z,8.13
2018-08-28T20:01:27.462Z,8.83
2018-08-28T20:03:59.568Z,10.57
2018-08-28T20:06:28.156Z,10.77
2018-08-28T20:08:56.499Z,11.47
2018-08-28T20:11:24.909Z,11.00
2018-08-28T20:13:53.188Z,10.60
2018-08-28T20:16:21.462Z,8.87
2018-08-28T20:18:51.671Z,12.33
2018-08-28T20:21:20.102Z,9.60
2018-08-28T20:23:48.537Z,11.87
2018-08-28T20:26:17.568Z,9.37
2018-08-28T20:28:46.261Z,9.50
2018-08-28T20:31:14.946Z,10.47
2018-08-28T20:33:43.632Z,7.10
2018-08-28T20:36:12.278Z,8.67
2018-08-28T20:38:41.210Z,9.53
2018-08-28T20:41:09.879Z,8.17
2018-08-28T20:43:38.689Z,11.57
2018-08-28T20:46:07.084Z,9.07
2018-08-28T20:48:35.538Z,9.83
2018-08-28T20:51:04.505Z,11.40
2018-08-28T20:53:33.815Z,9.93
2018-08-28T20:56:02.247Z,11.77
2018-08-28T20:58:30.620Z,9.30
2018-08-28T21:00:59.114Z,8.83
2018-08-28T21:03:27.530Z,9.63
2018-08-28T21:05:55.789Z,11.00
2018-08-28T21:08:24.645Z,10.33
2018-08-28T21:10:53.550Z,8.47
2018-08-28T21:13:21.852Z,10.17
2018-08-28T21:15:50.998Z,12.50
2018-08-28T21:18:19.916Z,11.33
2018-08-28T21:20:48.486Z,9.27
2018-08-28T21:23:17.479Z,14.30
2018-08-28T21:25:45.758Z,9.90
2018-08-28T21:28:14.382Z,11.13
2018-08-28T21:30:43.302Z,9.63
2018-08-28T21:33:11.849Z,10.90
2018-08-28T21:35:40.587Z,9.10
2018-08-28T21:38:09.889Z,10.03
2018-08-28T21:40:38.259Z,11.57
2018-08-28T21:43:06.552Z,10.00
2018-08-28T21:45:34.846Z,13.43
2018-08-28T21:48:03.281Z,9.63
2018-08-28T21:50:31.687Z,13.47
2018-08-28T21:53:00.129Z,14.53
2018-08-28T21:55:28.546Z,9.93
2018-08-28T21:57:57.178Z,9.80
2018-08-28T22:00:25.512Z,8.97
2018-08-28T22:02:53.922Z,11.27
2018-08-28T22:05:30.935Z,10.87
2018-08-28T22:08:01.580Z,13.40
2018-08-28T22:10:30.504Z,11.17
2018-08-28T22:12:58.798Z,11.13
2018-08-28T22:15:27.124Z,12.57
2018-08-28T22:17:55.774Z,11.83
2018-08-28T22:20:24.412Z,13.73
2018-08-28T22:22:53.352Z,11.47
2018-08-28T22:25:21.721Z,10.97
2018-08-28T22:27:50.115Z,12.87
2018-08-28T22:30:18.429Z,14.07
2018-08-28T22:32:46.709Z,14.80
2018-08-28T22:35:14.978Z,12.47
2018-08-28T22:37:43.288Z,15.43
2018-08-28T22:40:12.357Z,14.80
2018-08-28T22:42:40.679Z,9.80
2018-08-28T22:45:08.980Z,15.77
2018-08-28T22:47:38.197Z,11.87
2018-08-28T22:50:06.585Z,11.17
2018-08-28T22:52:34.881Z,11.77
2018-08-28T22:55:03.331Z,13.40
2018-08-28T22:57:31.697Z,13.07
2018-08-28T23:00:00.019Z,10.37
2018-08-28T23:02:28.834Z,10.70
2018-08-28T23:04:57.077Z,12.67
2018-08-28T23:07:25.366Z,10.73
2018-08-28T23:09:53.660Z,12.00
2018-08-28T23:12:22.028Z,13.83
2018-08-28T23:14:50.476Z,13.97
2018-08-28T23:17:18.756Z,10.93
2018-08-28T23:19:46.987Z,11.83
2018-08-28T23:22:15.283Z,11.07
2018-08-28T23:24:43.571Z,13.60
2018-08-28T23:27:11.839Z,11.63
2018-08-28T23:29:40.119Z,9.90
2018-08-28T23:32:08.475Z,13.00
2018-08-28T23:34:36.783Z,15.27
2018-08-28T23:37:05.356Z,13.23
2018-08-28T23:39:33.579Z,13.03
2018-08-28T23:42:01.891Z,15.17
2018-08-28T23:44:30.151Z,11.90
2018-08-28T23:46:58.405Z,14.00
2018-08-28T23:49:26.678Z,10.63
2018-08-28T23:51:54.989Z,14.70
2018-08-28T23:54:23.285Z,12.97
2018-08-28T23:56:51.566Z,12.63
2018-08-28T23:59:19.817Z,13.33
